sensor_id;sensor_type;location;lat;lon;timestamp;P1;durP1;ratioP1;P2;durP2;ratioP2
12852;SDS011;6495;51.808;7.478;2022-08-19T00:00:04;24.70;;;5.30;;
12852;SDS011;6495;51.808;7.478;2022-08-19T00:02:36;5.18;;;4.68;;
12852;SDS011;6495;51.808;7.478;2022-08-19T00:05:15;5.13;;;4.25;;
12852;SDS011;6495;51.808;7.478;2022-08-19T00:07:45;5.60;;;4.75;;
12852;SDS011;6495;51.808;7.478;2022-08-19T00:10:14;5.53;;;4.38;;
12852;SDS011;6495;51.808;7.478;2022-08-19T00:12:45;7.75;;;5.00;;
12852;SDS011;6495;51.808;7.478;2022-08-19T00:15:17;6.85;;;4.57;;
12852;SDS011;6495;51.808;7.478;2022-08-19T00:17:48;7.00;;;5.20;;
12852;SDS011;6495;51.808;7.478;2022-08-19T00:20:18;7.35;;;4.68;;
12852;SDS011;6495;51.808;7.478;2022-08-19T00:22:48;6.60;;;4.90;;
12852;SDS011;6495;51.808;7.478;2022-08-19T00:25:18;5.22;;;4.72;;
12852;SDS011;6495;51.808;7.478;2022-08-19T00:27:55;7.00;;;4.80;;
12852;SDS011;6495;51.808;7.478;2022-08-19T00:30:26;6.30;;;4.75;;
12852;SDS011;6495;51.808;7.478;2022-08-19T00:32:54;6.45;;;5.28;;
12852;SDS011;6495;51.808;7.478;2022-08-19T00:35:23;6.35;;;4.85;;
12852;SDS011;6495;51.808;7.478;2022-08-19T00:37:53;5.40;;;4.47;;
12852;SDS011;6495;51.808;7.478;2022-08-19T00:40:22;4.95;;;4.13;;
12852;SDS011;6495;51.808;7.478;2022-08-19T00:42:51;7.53;;;4.75;;
12852;SDS011;6495;51.808;7.478;2022-08-19T00:45:22;9.43;;;4.85;;
12852;SDS011;6495;51.808;7.478;2022-08-19T00:47:59;5.25;;;4.72;;
12852;SDS011;6495;51.808;7.478;2022-08-19T00:50:30;7.82;;;5.55;;
12852;SDS011;6495;51.808;7.478;2022-08-19T00:53:00;6.35;;;4.95;;
12852;SDS011;6495;51.808;7.478;2022-08-19T00:55:30;5.43;;;4.70;;
12852;SDS011;6495;51.808;7.478;2022-08-19T00:58:01;6.03;;;4.85;;
12852;SDS011;6495;51.808;7.478;2022-08-19T01:00:34;7.32;;;4.78;;
12852;SDS011;6495;51.808;7.478;2022-08-19T01:03:06;6.65;;;5.07;;
12852;SDS011;6495;51.808;7.478;2022-08-19T01:05:37;5.63;;;5.00;;
12852;SDS011;6495;51.808;7.478;2022-08-19T01:08:09;8.32;;;5.68;;
12852;SDS011;6495;51.808;7.478;2022-08-19T01:10:40;6.40;;;5.30;;
12852;SDS011;6495;51.808;7.478;2022-08-19T01:13:13;5.95;;;5.22;;
12852;SDS011;6495;51.808;7.478;2022-08-19T01:15:47;7.15;;;5.10;;
12852;SDS011;6495;51.808;7.478;2022-08-19T01:18:22;6.28;;;5.03;;
12852;SDS011;6495;51.808;7.478;2022-08-19T01:20:54;8.48;;;5.97;;
12852;SDS011;6495;51.808;7.478;2022-08-19T01:23:29;7.00;;;5.70;;
12852;SDS011;6495;51.808;7.478;2022-08-19T01:26:10;7.22;;;5.72;;
12852;SDS011;6495;51.808;7.478;2022-08-19T01:28:43;6.20;;;5.60;;
12852;SDS011;6495;51.808;7.478;2022-08-19T01:31:18;7.70;;;5.63;;
12852;SDS011;6495;51.808;7.478;2022-08-19T01:33:53;7.82;;;5.45;;
12852;SDS011;6495;51.808;7.478;2022-08-19T01:36:24;7.68;;;5.43;;
12852;SDS011;6495;51.808;7.478;2022-08-19T01:38:59;8.68;;;5.75;;
12852;SDS011;6495;51.808;7.478;2022-08-19T01:41:30;7.78;;;6.53;;
12852;SDS011;6495;51.808;7.478;2022-08-19T01:43:59;8.55;;;6.00;;
12852;SDS011;6495;51.808;7.478;2022-08-19T01:46:44;9.07;;;6.28;;
12852;SDS011;6495;51.808;7.478;2022-08-19T01:49:14;6.70;;;5.35;;
12852;SDS011;6495;51.808;7.478;2022-08-19T01:51:44;7.70;;;6.20;;
12852;SDS011;6495;51.808;7.478;2022-08-19T01:54:15;7.32;;;6.18;;
12852;SDS011;6495;51.808;7.478;2022-08-19T01:56:53;8.15;;;5.90;;
12852;SDS011;6495;51.808;7.478;2022-08-19T01:59:28;7.30;;;5.85;;
12852;SDS011;6495;51.808;7.478;2022-08-19T02:01:58;7.97;;;6.38;;
12852;SDS011;6495;51.808;7.478;2022-08-19T02:04:26;6.88;;;5.60;;
12852;SDS011;6495;51.808;7.478;2022-08-19T02:06:54;7.70;;;6.03;;
12852;SDS011;6495;51.808;7.478;2022-08-19T02:09:25;7.93;;;6.30;;
12852;SDS011;6495;51.808;7.478;2022-08-19T02:11:54;6.95;;;5.47;;
12852;SDS011;6495;51.808;7.478;2022-08-19T02:14:22;7.70;;;5.30;;
12852;SDS011;6495;51.808;7.478;2022-08-19T02:16:50;8.88;;;6.15;;
12852;SDS011;6495;51.808;7.478;2022-08-19T02:19:18;8.13;;;6.10;;
12852;SDS011;6495;51.808;7.478;2022-08-19T02:21:47;8.65;;;5.88;;
12852;SDS011;6495;51.808;7.478;2022-08-19T02:24:15;10.30;;;6.18;;
12852;SDS011;6495;51.808;7.478;2022-08-19T02:26:45;8.23;;;6.20;;
12852;SDS011;6495;51.808;7.478;2022-08-19T02:29:13;7.60;;;6.10;;
12852;SDS011;6495;51.808;7.478;2022-08-19T02:31:41;7.07;;;6.03;;
12852;SDS011;6495;51.808;7.478;2022-08-19T02:34:09;9.60;;;5.95;;
12852;SDS011;6495;51.808;7.478;2022-08-19T02:36:38;7.60;;;5.65;;
12852;SDS011;6495;51.808;7.478;2022-08-19T02:39:07;8.43;;;5.63;;
12852;SDS011;6495;51.808;7.478;2022-08-19T02:41:35;7.80;;;5.50;;
12852;SDS011;6495;51.808;7.478;2022-08-19T02:44:05;7.13;;;5.35;;
12852;SDS011;6495;51.808;7.478;2022-08-19T02:46:53;8.63;;;5.32;;
12852;SDS011;6495;51.808;7.478;2022-08-19T02:49:21;7.65;;;6.10;;
12852;SDS011;6495;51.808;7.478;2022-08-19T02:51:50;6.63;;;5.43;;
12852;SDS011;6495;51.808;7.478;2022-08-19T02:54:18;9.20;;;6.43;;
12852;SDS011;6495;51.808;7.478;2022-08-19T02:56:46;8.85;;;5.88;;
12852;SDS011;6495;51.808;7.478;2022-08-19T02:59:16;7.82;;;6.38;;
12852;SDS011;6495;51.808;7.478;2022-08-19T03:01:48;9.00;;;6.18;;
12852;SDS011;6495;51.808;7.478;2022-08-19T03:04:16;8.13;;;6.70;;
12852;SDS011;6495;51.808;7.478;2022-08-19T03:06:46;10.35;;;6.70;;
12852;SDS011;6495;51.808;7.478;2022-08-19T03:09:15;7.53;;;6.13;;
12852;SDS011;6495;51.808;7.478;2022-08-19T03:11:45;6.65;;;5.95;;
12852;SDS011;6495;51.808;7.478;2022-08-19T03:14:19;9.10;;;6.15;;
12852;SDS011;6495;51.808;7.478;2022-08-19T03:16:48;8.13;;;6.63;;
12852;SDS011;6495;51.808;7.478;2022-08-19T03:19:19;11.00;;;6.40;;
12852;SDS011;6495;51.808;7.478;2022-08-19T03:21:48;9.73;;;6.53;;
12852;SDS011;6495;51.808;7.478;2022-08-19T03:24:17;7.25;;;6.07;;
12852;SDS011;6495;51.808;7.478;2022-08-19T03:26:49;8.20;;;6.88;;
12852;SDS011;6495;51.808;7.478;2022-08-19T03:29:23;8.38;;;6.43;;
12852;SDS011;6495;51.808;7.478;2022-08-19T03:31:57;9.27;;;6.60;;
12852;SDS011;6495;51.808;7.478;2022-08-19T03:34:28;9.10;;;6.75;;
12852;SDS011;6495;51.808;7.478;2022-08-19T03:37:01;8.27;;;6.25;;
12852;SDS011;6495;51.808;7.478;2022-08-19T03:39:33;9.32;;;6.90;;
12852;SDS011;6495;51.808;7.478;2022-08-19T03:42:05;7.28;;;5.75;;
12852;SDS011;6495;51.808;7.478;2022-08-19T03:44:54;8.00;;;6.65;;
12852;SDS011;6495;51.808;7.478;2022-08-19T03:47:24;12.20;;;6.97;;
12852;SDS011;6495;51.808;7.478;2022-08-19T03:49:52;9.05;;;6.88;;
12852;SDS011;6495;51.808;7.478;2022-08-19T03:52:21;7.95;;;6.63;;
12852;SDS011;6495;51.808;7.478;2022-08-19T03:54:49;8.88;;;7.22;;
12852;SDS011;6495;51.808;7.478;2022-08-19T03:57:17;9.90;;;6.90;;
12852;SDS011;6495;51.808;7.478;2022-08-19T03:59:49;10.48;;;7.32;;
12852;SDS011;6495;51.808;7.478;2022-08-19T04:02:19;8.63;;;7.22;;
12852;SDS011;6495;51.808;7.478;2022-08-19T04:04:47;10.77;;;7.43;;
12852;SDS011;6495;51.808;7.478;2022-08-19T04:07:15;39.90;;;8.90;;
12852;SDS011;6495;51.808;7.478;2022-08-19T04:09:47;12.43;;;7.35;;
12852;SDS011;6495;51.808;7.478;2022-08-19T04:12:16;9.00;;;7.38;;
12852;SDS011;6495;51.808;7.478;2022-08-19T04:14:46;10.75;;;6.53;;
12852;SDS011;6495;51.808;7.478;2022-08-19T04:17:14;8.65;;;6.80;;
12852;SDS011;6495;51.808;7.478;2022-08-19T04:19:44;8.45;;;6.68;;
12852;SDS011;6495;51.808;7.478;2022-08-19T04:22:12;9.32;;;6.85;;
12852;SDS011;6495;51.808;7.478;2022-08-19T04:24:40;8.70;;;6.40;;
12852;SDS011;6495;51.808;7.478;2022-08-19T04:27:09;8.48;;;6.43;;
12852;SDS011;6495;51.808;7.478;2022-08-19T04:29:37;10.98;;;6.85;;
12852;SDS011;6495;51.808;7.478;2022-08-19T04:32:05;10.75;;;7.22;;
12852;SDS011;6495;51.808;7.478;2022-08-19T04:34:35;8.13;;;6.47;;
12852;SDS011;6495;51.808;7.478;2022-08-19T04:37:26;10.38;;;7.60;;
12852;SDS011;6495;51.808;7.478;2022-08-19T04:40:01;10.85;;;7.43;;
12852;SDS011;6495;51.808;7.478;2022-08-19T04:42:50;9.32;;;7.18;;
12852;SDS011;6495;51.808;7.478;2022-08-19T04:45:20;8.73;;;7.05;;
12852;SDS011;6495;51.808;7.478;2022-08-19T04:47:48;9.80;;;7.07;;
12852;SDS011;6495;51.808;7.478;2022-08-19T04:50:39;10.75;;;7.43;;
12852;SDS011;6495;51.808;7.478;2022-08-19T04:53:11;9.60;;;7.47;;
12852;SDS011;6495;51.808;7.478;2022-08-19T04:55:39;12.90;;;7.43;;
12852;SDS011;6495;51.808;7.478;2022-08-19T04:58:08;8.45;;;6.60;;
12852;SDS011;6495;51.808;7.478;2022-08-19T05:00:37;11.18;;;7.50;;
12852;SDS011;6495;51.808;7.478;2022-08-19T05:03:07;10.02;;;7.28;;
12852;SDS011;6495;51.808;7.478;2022-08-19T05:05:37;10.60;;;6.88;;
12852;SDS011;6495;51.808;7.478;2022-08-19T05:08:12;10.60;;;6.53;;
12852;SDS011;6495;51.808;7.478;2022-08-19T05:10:56;8.07;;;6.70;;
12852;SDS011;6495;51.808;7.478;2022-08-19T05:13:24;8.88;;;7.20;;
12852;SDS011;6495;51.808;7.478;2022-08-19T05:15:54;11.65;;;6.95;;
12852;SDS011;6495;51.808;7.478;2022-08-19T05:18:24;7.80;;;5.75;;
12852;SDS011;6495;51.808;7.478;2022-08-19T05:21:11;7.80;;;6.75;;
12852;SDS011;6495;51.808;7.478;2022-08-19T05:24:03;8.73;;;6.35;;
12852;SDS011;6495;51.808;7.478;2022-08-19T05:26:34;10.60;;;6.85;;
12852;SDS011;6495;51.808;7.478;2022-08-19T05:29:03;8.77;;;6.97;;
12852;SDS011;6495;51.808;7.478;2022-08-19T05:31:35;7.95;;;6.80;;
12852;SDS011;6495;51.808;7.478;2022-08-19T05:34:07;7.45;;;6.55;;
12852;SDS011;6495;51.808;7.478;2022-08-19T05:36:45;13.43;;;7.20;;
12852;SDS011;6495;51.808;7.478;2022-08-19T05:39:17;10.93;;;8.48;;
12852;SDS011;6495;51.808;7.478;2022-08-19T05:41:48;10.43;;;8.20;;
12852;SDS011;6495;51.808;7.478;2022-08-19T05:44:20;10.77;;;8.48;;
12852;SDS011;6495;51.808;7.478;2022-08-19T05:46:48;12.13;;;8.52;;
12852;SDS011;6495;51.808;7.478;2022-08-19T05:49:20;10.23;;;8.07;;
12852;SDS011;6495;51.808;7.478;2022-08-19T05:51:49;10.95;;;8.48;;
12852;SDS011;6495;51.808;7.478;2022-08-19T05:54:19;11.18;;;8.70;;
12852;SDS011;6495;51.808;7.478;2022-08-19T05:56:50;12.82;;;8.73;;
12852;SDS011;6495;51.808;7.478;2022-08-19T05:59:19;13.68;;;9.27;;
12852;SDS011;6495;51.808;7.478;2022-08-19T06:01:52;13.75;;;9.70;;
12852;SDS011;6495;51.808;7.478;2022-08-19T06:04:23;12.93;;;9.13;;
12852;SDS011;6495;51.808;7.478;2022-08-19T06:06:52;13.55;;;9.30;;
12852;SDS011;6495;51.808;7.478;2022-08-19T06:09:23;11.52;;;8.57;;
12852;SDS011;6495;51.808;7.478;2022-08-19T06:11:53;13.82;;;9.23;;
12852;SDS011;6495;51.808;7.478;2022-08-19T06:14:26;11.02;;;8.57;;
12852;SDS011;6495;51.808;7.478;2022-08-19T06:16:58;11.00;;;8.50;;
12852;SDS011;6495;51.808;7.478;2022-08-19T06:19:32;12.00;;;8.77;;
12852;SDS011;6495;51.808;7.478;2022-08-19T06:22:06;15.43;;;9.95;;
12852;SDS011;6495;51.808;7.478;2022-08-19T06:24:37;14.07;;;9.25;;
12852;SDS011;6495;51.808;7.478;2022-08-19T06:27:05;17.25;;;10.23;;
12852;SDS011;6495;51.808;7.478;2022-08-19T06:29:33;16.42;;;10.82;;
12852;SDS011;6495;51.808;7.478;2022-08-19T06:32:02;14.35;;;9.35;;
12852;SDS011;6495;51.808;7.478;2022-08-19T06:34:32;17.90;;;10.68;;
12852;SDS011;6495;51.808;7.478;2022-08-19T06:37:02;13.85;;;9.88;;
12852;SDS011;6495;51.808;7.478;2022-08-19T06:39:33;14.45;;;9.95;;
12852;SDS011;6495;51.808;7.478;2022-08-19T06:42:06;16.67;;;11.35;;
12852;SDS011;6495;51.808;7.478;2022-08-19T06:44:38;14.38;;;9.52;;
12852;SDS011;6495;51.808;7.478;2022-08-19T06:47:15;19.52;;;11.18;;
12852;SDS011;6495;51.808;7.478;2022-08-19T06:49:53;16.80;;;10.68;;
12852;SDS011;6495;51.808;7.478;2022-08-19T06:52:28;14.10;;;10.55;;
12852;SDS011;6495;51.808;7.478;2022-08-19T06:55:01;15.50;;;9.82;;
12852;SDS011;6495;51.808;7.478;2022-08-19T06:57:32;17.75;;;10.57;;
12852;SDS011;6495;51.808;7.478;2022-08-19T07:00:01;15.45;;;10.15;;
12852;SDS011;6495;51.808;7.478;2022-08-19T07:02:38;18.35;;;11.27;;
12852;SDS011;6495;51.808;7.478;2022-08-19T07:05:07;24.70;;;10.82;;
12852;SDS011;6495;51.808;7.478;2022-08-19T07:07:36;17.70;;;11.20;;
12852;SDS011;6495;51.808;7.478;2022-08-19T07:10:09;16.40;;;10.68;;
12852;SDS011;6495;51.808;7.478;2022-08-19T07:12:38;16.73;;;10.05;;
12852;SDS011;6495;51.808;7.478;2022-08-19T07:15:07;15.70;;;10.55;;
12852;SDS011;6495;51.808;7.478;2022-08-19T07:17:37;15.65;;;10.35;;
12852;SDS011;6495;51.808;7.478;2022-08-19T07:20:10;14.45;;;10.48;;
12852;SDS011;6495;51.808;7.478;2022-08-19T07:22:39;15.73;;;10.45;;
12852;SDS011;6495;51.808;7.478;2022-08-19T07:25:08;18.48;;;11.25;;
12852;SDS011;6495;51.808;7.478;2022-08-19T07:27:39;18.23;;;11.73;;
12852;SDS011;6495;51.808;7.478;2022-08-19T07:30:11;16.30;;;11.63;;
12852;SDS011;6495;51.808;7.478;2022-08-19T07:32:40;15.07;;;11.00;;
12852;SDS011;6495;51.808;7.478;2022-08-19T07:35:08;15.18;;;10.73;;
12852;SDS011;6495;51.808;7.478;2022-08-19T07:37:37;19.17;;;11.02;;
12852;SDS011;6495;51.808;7.478;2022-08-19T07:40:11;14.35;;;11.43;;
12852;SDS011;6495;51.808;7.478;2022-08-19T07:42:40;16.20;;;10.98;;
12852;SDS011;6495;51.808;7.478;2022-08-19T07:45:09;16.48;;;10.52;;
12852;SDS011;6495;51.808;7.478;2022-08-19T07:47:38;15.75;;;10.68;;
12852;SDS011;6495;51.808;7.478;2022-08-19T07:50:16;20.38;;;10.55;;
12852;SDS011;6495;51.808;7.478;2022-08-19T07:52:46;15.75;;;9.82;;
12852;SDS011;6495;51.808;7.478;2022-08-19T07:55:19;18.15;;;11.23;;
12852;SDS011;6495;51.808;7.478;2022-08-19T07:58:09;18.63;;;10.50;;
12852;SDS011;6495;51.808;7.478;2022-08-19T08:00:40;16.40;;;10.90;;
12852;SDS011;6495;51.808;7.478;2022-08-19T08:03:09;13.60;;;10.23;;
12852;SDS011;6495;51.808;7.478;2022-08-19T08:05:37;15.77;;;9.95;;
12852;SDS011;6495;51.808;7.478;2022-08-19T08:08:23;17.63;;;10.95;;
12852;SDS011;6495;51.808;7.478;2022-08-19T08:11:15;16.67;;;10.05;;
12852;SDS011;6495;51.808;7.478;2022-08-19T08:13:49;14.82;;;9.57;;
12852;SDS011;6495;51.808;7.478;2022-08-19T08:16:30;14.02;;;8.77;;
12852;SDS011;6495;51.808;7.478;2022-08-19T08:19:05;12.70;;;8.50;;
12852;SDS011;6495;51.808;7.478;2022-08-19T08:21:50;10.95;;;8.38;;
12852;SDS011;6495;51.808;7.478;2022-08-19T08:24:20;12.00;;;7.78;;
12852;SDS011;6495;51.808;7.478;2022-08-19T08:26:55;14.65;;;9.25;;
12852;SDS011;6495;51.808;7.478;2022-08-19T08:29:25;11.90;;;8.05;;
12852;SDS011;6495;51.808;7.478;2022-08-19T08:32:00;11.60;;;7.95;;
12852;SDS011;6495;51.808;7.478;2022-08-19T08:34:39;11.55;;;7.18;;
12852;SDS011;6495;51.808;7.478;2022-08-19T08:37:08;15.13;;;9.63;;
12852;SDS011;6495;51.808;7.478;2022-08-19T08:39:36;12.90;;;8.07;;
12852;SDS011;6495;51.808;7.478;2022-08-19T08:42:07;11.82;;;8.02;;
12852;SDS011;6495;51.808;7.478;2022-08-19T08:44:52;10.93;;;8.05;;
12852;SDS011;6495;51.808;7.478;2022-08-19T08:47:28;10.23;;;6.63;;
12852;SDS011;6495;51.808;7.478;2022-08-19T08:50:07;9.40;;;6.78;;
12852;SDS011;6495;51.808;7.478;2022-08-19T08:52:45;8.98;;;6.65;;
12852;SDS011;6495;51.808;7.478;2022-08-19T08:55:19;8.85;;;7.25;;
12852;SDS011;6495;51.808;7.478;2022-08-19T08:58:04;8.65;;;7.30;;
12852;SDS011;6495;51.808;7.478;2022-08-19T09:00:41;13.98;;;7.70;;
12852;SDS011;6495;51.808;7.478;2022-08-19T09:03:16;10.55;;;7.45;;
12852;SDS011;6495;51.808;7.478;2022-08-19T09:05:50;9.82;;;7.40;;
12852;SDS011;6495;51.808;7.478;2022-08-19T09:08:35;11.52;;;6.88;;
12852;SDS011;6495;51.808;7.478;2022-08-19T09:11:17;9.18;;;6.63;;
12852;SDS011;6495;51.808;7.478;2022-08-19T09:14:13;7.45;;;6.50;;
12852;SDS011;6495;51.808;7.478;2022-08-19T09:17:16;7.25;;;5.90;;
12852;SDS011;6495;51.808;7.478;2022-08-19T09:19:55;8.32;;;5.93;;
12852;SDS011;6495;51.808;7.478;2022-08-19T09:22:27;8.77;;;5.93;;
12852;SDS011;6495;51.808;7.478;2022-08-19T09:24:55;7.90;;;5.03;;
12852;SDS011;6495;51.808;7.478;2022-08-19T09:27:24;5.53;;;4.88;;
12852;SDS011;6495;51.808;7.478;2022-08-19T09:30:16;5.72;;;4.20;;
12852;SDS011;6495;51.808;7.478;2022-08-19T09:32:50;7.72;;;5.95;;
12852;SDS011;6495;51.808;7.478;2022-08-19T09:35:20;9.98;;;6.40;;
12852;SDS011;6495;51.808;7.478;2022-08-19T09:37:53;10.38;;;6.70;;
12852;SDS011;6495;51.808;7.478;2022-08-19T09:40:25;5.95;;;5.03;;
12852;SDS011;6495;51.808;7.478;2022-08-19T09:43:00;4.97;;;4.32;;
12852;SDS011;6495;51.808;7.478;2022-08-19T09:45:39;6.80;;;5.13;;
12852;SDS011;6495;51.808;7.478;2022-08-19T09:48:07;5.63;;;4.90;;
12852;SDS011;6495;51.808;7.478;2022-08-19T09:50:37;6.03;;;5.43;;
12852;SDS011;6495;51.808;7.478;2022-08-19T09:53:17;6.07;;;4.57;;
12852;SDS011;6495;51.808;7.478;2022-08-19T09:55:51;4.80;;;4.20;;
12852;SDS011;6495;51.808;7.478;2022-08-19T09:58:19;4.22;;;3.83;;
12852;SDS011;6495;51.808;7.478;2022-08-19T10:00:53;4.32;;;3.92;;
12852;SDS011;6495;51.808;7.478;2022-08-19T10:03:21;18.70;;;5.43;;
12852;SDS011;6495;51.808;7.478;2022-08-19T10:05:55;9.13;;;4.00;;
12852;SDS011;6495;51.808;7.478;2022-08-19T10:08:27;5.72;;;4.28;;
12852;SDS011;6495;51.808;7.478;2022-08-19T10:10:59;6.22;;;4.60;;
12852;SDS011;6495;51.808;7.478;2022-08-19T10:13:48;5.30;;;4.80;;
12852;SDS011;6495;51.808;7.478;2022-08-19T10:16:19;5.82;;;4.85;;
12852;SDS011;6495;51.808;7.478;2022-08-19T10:18:55;5.97;;;4.35;;
12852;SDS011;6495;51.808;7.478;2022-08-19T10:21:26;5.85;;;4.75;;
12852;SDS011;6495;51.808;7.478;2022-08-19T10:24:01;6.80;;;5.00;;
12852;SDS011;6495;51.808;7.478;2022-08-19T10:26:35;5.25;;;4.75;;
12852;SDS011;6495;51.808;7.478;2022-08-19T10:29:08;5.45;;;4.68;;
12852;SDS011;6495;51.808;7.478;2022-08-19T10:31:39;6.55;;;4.75;;
12852;SDS011;6495;51.808;7.478;2022-08-19T10:34:28;5.35;;;4.85;;
12852;SDS011;6495;51.808;7.478;2022-08-19T10:36:57;5.55;;;4.90;;
12852;SDS011;6495;51.808;7.478;2022-08-19T10:39:28;5.97;;;5.38;;
12852;SDS011;6495;51.808;7.478;2022-08-19T10:42:08;8.88;;;5.53;;
12852;SDS011;6495;51.808;7.478;2022-08-19T10:44:39;7.53;;;6.38;;
12852;SDS011;6495;51.808;7.478;2022-08-19T10:47:10;7.50;;;6.28;;
12852;SDS011;6495;51.808;7.478;2022-08-19T10:49:50;9.18;;;6.13;;
12852;SDS011;6495;51.808;7.478;2022-08-19T10:52:41;9.63;;;5.95;;
12852;SDS011;6495;51.808;7.478;2022-08-19T10:55:16;6.97;;;5.18;;
12852;SDS011;6495;51.808;7.478;2022-08-19T10:58:09;7.50;;;5.90;;
12852;SDS011;6495;51.808;7.478;2022-08-19T11:00:39;9.05;;;7.15;;
12852;SDS011;6495;51.808;7.478;2022-08-19T11:03:10;6.75;;;5.47;;
12852;SDS011;6495;51.808;7.478;2022-08-19T11:05:39;8.43;;;5.32;;
12852;SDS011;6495;51.808;7.478;2022-08-19T11:08:07;6.10;;;5.43;;
12852;SDS011;6495;51.808;7.478;2022-08-19T11:10:49;8.18;;;5.75;;
12852;SDS011;6495;51.808;7.478;2022-08-19T11:13:25;7.10;;;5.32;;
12852;SDS011;6495;51.808;7.478;2022-08-19T11:15:58;8.27;;;6.10;;
12852;SDS011;6495;51.808;7.478;2022-08-19T11:18:34;7.75;;;6.70;;
12852;SDS011;6495;51.808;7.478;2022-08-19T11:21:11;11.52;;;6.68;;
12852;SDS011;6495;51.808;7.478;2022-08-19T11:23:43;10.02;;;6.63;;
12852;SDS011;6495;51.808;7.478;2022-08-19T11:26:13;8.80;;;7.00;;
12852;SDS011;6495;51.808;7.478;2022-08-19T11:28:43;8.00;;;6.80;;
12852;SDS011;6495;51.808;7.478;2022-08-19T11:31:12;8.98;;;6.88;;
12852;SDS011;6495;51.808;7.478;2022-08-19T11:33:44;8.30;;;6.15;;
12852;SDS011;6495;51.808;7.478;2022-08-19T11:36:13;9.85;;;7.20;;
12852;SDS011;6495;51.808;7.478;2022-08-19T11:38:43;9.55;;;6.45;;
12852;SDS011;6495;51.808;7.478;2022-08-19T11:41:15;7.07;;;6.07;;
12852;SDS011;6495;51.808;7.478;2022-08-19T11:43:46;8.88;;;6.03;;
12852;SDS011;6495;51.808;7.478;2022-08-19T11:46:15;6.65;;;5.85;;
12852;SDS011;6495;51.808;7.478;2022-08-19T11:48:46;9.73;;;5.70;;
12852;SDS011;6495;51.808;7.478;2022-08-19T11:51:18;8.48;;;5.75;;
12852;SDS011;6495;51.808;7.478;2022-08-19T11:53:51;8.40;;;6.90;;
12852;SDS011;6495;51.808;7.478;2022-08-19T11:56:20;10.75;;;6.28;;
12852;SDS011;6495;51.808;7.478;2022-08-19T11:58:51;6.40;;;5.10;;
12852;SDS011;6495;51.808;7.478;2022-08-19T12:01:20;7.18;;;6.18;;
12852;SDS011;6495;51.808;7.478;2022-08-19T12:03:53;6.35;;;5.03;;
12852;SDS011;6495;51.808;7.478;2022-08-19T12:06:23;5.30;;;4.47;;
12852;SDS011;6495;51.808;7.478;2022-08-19T12:08:55;6.82;;;5.32;;
12852;SDS011;6495;51.808;7.478;2022-08-19T12:11:26;4.88;;;4.20;;
12852;SDS011;6495;51.808;7.478;2022-08-19T12:14:00;5.90;;;4.43;;
12852;SDS011;6495;51.808;7.478;2022-08-19T12:16:31;4.93;;;4.20;;
12852;SDS011;6495;51.808;7.478;2022-08-19T12:19:07;5.75;;;5.13;;
12852;SDS011;6495;51.808;7.478;2022-08-19T12:21:35;45.80;;;7.05;;
12852;SDS011;6495;51.808;7.478;2022-08-19T12:24:04;7.07;;;5.60;;
12852;SDS011;6495;51.808;7.478;2022-08-19T12:26:33;7.25;;;5.88;;
12852;SDS011;6495;51.808;7.478;2022-08-19T12:29:18;6.53;;;5.82;;
12852;SDS011;6495;51.808;7.478;2022-08-19T12:31:49;7.32;;;5.63;;
12852;SDS011;6495;51.808;7.478;2022-08-19T12:34:19;5.55;;;4.90;;
12852;SDS011;6495;51.808;7.478;2022-08-19T12:36:47;6.45;;;4.93;;
12852;SDS011;6495;51.808;7.478;2022-08-19T12:39:16;6.75;;;4.88;;
12852;SDS011;6495;51.808;7.478;2022-08-19T12:41:44;6.05;;;5.13;;
12852;SDS011;6495;51.808;7.478;2022-08-19T12:44:20;5.15;;;4.60;;
12852;SDS011;6495;51.808;7.478;2022-08-19T12:46:55;5.10;;;4.28;;
12852;SDS011;6495;51.808;7.478;2022-08-19T12:49:25;5.47;;;4.90;;
12852;SDS011;6495;51.808;7.478;2022-08-19T12:52:15;8.00;;;5.25;;
12852;SDS011;6495;51.808;7.478;2022-08-19T12:54:49;6.20;;;5.13;;
12852;SDS011;6495;51.808;7.478;2022-08-19T12:57:20;7.72;;;5.10;;
12852;SDS011;6495;51.808;7.478;2022-08-19T12:59:58;8.80;;;4.80;;
12852;SDS011;6495;51.808;7.478;2022-08-19T13:02:32;5.95;;;5.10;;
12852;SDS011;6495;51.808;7.478;2022-08-19T13:05:07;5.50;;;4.30;;
12852;SDS011;6495;51.808;7.478;2022-08-19T13:07:38;6.88;;;4.28;;
12852;SDS011;6495;51.808;7.478;2022-08-19T13:10:10;6.85;;;4.93;;
12852;SDS011;6495;51.808;7.478;2022-08-19T13:12:41;6.07;;;4.70;;
12852;SDS011;6495;51.808;7.478;2022-08-19T13:15:11;6.85;;;5.28;;
12852;SDS011;6495;51.808;7.478;2022-08-19T13:17:43;8.80;;;6.43;;
12852;SDS011;6495;51.808;7.478;2022-08-19T13:20:16;6.88;;;5.35;;
12852;SDS011;6495;51.808;7.478;2022-08-19T13:22:46;6.93;;;6.22;;
12852;SDS011;6495;51.808;7.478;2022-08-19T13:25:15;10.98;;;6.18;;
12852;SDS011;6495;51.808;7.478;2022-08-19T13:27:46;5.95;;;4.93;;
12852;SDS011;6495;51.808;7.478;2022-08-19T13:30:18;7.78;;;5.90;;
12852;SDS011;6495;51.808;7.478;2022-08-19T13:33:06;8.15;;;5.57;;
12852;SDS011;6495;51.808;7.478;2022-08-19T13:35:46;6.53;;;5.90;;
12852;SDS011;6495;51.808;7.478;2022-08-19T13:38:17;12.35;;;6.10;;
12852;SDS011;6495;51.808;7.478;2022-08-19T13:41:44;47.10;;;8.27;;
12852;SDS011;6495;51.808;7.478;2022-08-19T13:44:15;7.25;;;5.57;;
12852;SDS011;6495;51.808;7.478;2022-08-19T13:46:44;5.63;;;5.03;;
12852;SDS011;6495;51.808;7.478;2022-08-19T13:49:13;5.53;;;4.47;;
12852;SDS011;6495;51.808;7.478;2022-08-19T13:51:43;6.45;;;5.25;;
12852;SDS011;6495;51.808;7.478;2022-08-19T13:54:12;8.18;;;4.82;;
12852;SDS011;6495;51.808;7.478;2022-08-19T13:56:40;7.32;;;4.95;;
12852;SDS011;6495;51.808;7.478;2022-08-19T13:59:12;5.70;;;4.65;;
12852;SDS011;6495;51.808;7.478;2022-08-19T14:01:40;5.20;;;4.70;;
12852;SDS011;6495;51.808;7.478;2022-08-19T14:04:09;7.38;;;4.80;;
12852;SDS011;6495;51.808;7.478;2022-08-19T14:06:37;5.88;;;5.30;;
12852;SDS011;6495;51.808;7.478;2022-08-19T14:09:06;7.10;;;4.53;;
12852;SDS011;6495;51.808;7.478;2022-08-19T14:11:34;5.32;;;4.40;;
12852;SDS011;6495;51.808;7.478;2022-08-19T14:14:05;5.63;;;4.60;;
12852;SDS011;6495;51.808;7.478;2022-08-19T14:16:36;6.22;;;4.50;;
12852;SDS011;6495;51.808;7.478;2022-08-19T14:19:05;4.13;;;3.72;;
12852;SDS011;6495;51.808;7.478;2022-08-19T14:21:33;4.78;;;4.00;;
12852;SDS011;6495;51.808;7.478;2022-08-19T14:24:06;5.85;;;4.43;;
12852;SDS011;6495;51.808;7.478;2022-08-19T14:26:35;4.75;;;4.03;;
12852;SDS011;6495;51.808;7.478;2022-08-19T14:29:06;4.25;;;3.85;;
12852;SDS011;6495;51.808;7.478;2022-08-19T14:31:34;4.70;;;4.22;;
12852;SDS011;6495;51.808;7.478;2022-08-19T14:34:03;3.78;;;3.35;;
12852;SDS011;6495;51.808;7.478;2022-08-19T14:36:33;4.30;;;3.58;;
12852;SDS011;6495;51.808;7.478;2022-08-19T14:39:04;4.07;;;3.70;;
12852;SDS011;6495;51.808;7.478;2022-08-19T14:44:02;22.35;;;4.35;;
12852;SDS011;6495;51.808;7.478;2022-08-19T14:46:32;4.07;;;3.45;;
12852;SDS011;6495;51.808;7.478;2022-08-19T14:49:00;8.05;;;3.65;;
12852;SDS011;6495;51.808;7.478;2022-08-19T14:51:34;3.45;;;3.15;;
12852;SDS011;6495;51.808;7.478;2022-08-19T14:54:03;4.13;;;3.63;;
12852;SDS011;6495;51.808;7.478;2022-08-19T14:56:32;3.45;;;3.15;;
12852;SDS011;6495;51.808;7.478;2022-08-19T14:59:00;4.55;;;3.45;;
12852;SDS011;6495;51.808;7.478;2022-08-19T15:01:28;4.93;;;3.47;;
12852;SDS011;6495;51.808;7.478;2022-08-19T15:03:58;4.03;;;3.17;;
12852;SDS011;6495;51.808;7.478;2022-08-19T15:06:26;6.45;;;3.40;;
12852;SDS011;6495;51.808;7.478;2022-08-19T15:08:55;3.70;;;3.22;;
12852;SDS011;6495;51.808;7.478;2022-08-19T15:11:29;4.07;;;3.25;;
12852;SDS011;6495;51.808;7.478;2022-08-19T15:13:59;3.30;;;2.80;;
12852;SDS011;6495;51.808;7.478;2022-08-19T15:16:28;3.92;;;3.47;;
12852;SDS011;6495;51.808;7.478;2022-08-19T15:18:57;4.55;;;3.30;;
12852;SDS011;6495;51.808;7.478;2022-08-19T15:21:28;3.45;;;3.00;;
12852;SDS011;6495;51.808;7.478;2022-08-19T15:23:58;3.88;;;3.17;;
12852;SDS011;6495;51.808;7.478;2022-08-19T15:26:28;3.30;;;3.00;;
12852;SDS011;6495;51.808;7.478;2022-08-19T15:28:58;3.35;;;3.05;;